createdAt,value
2022-10-24T00:01:23.700Z,6.10
2022-10-24T00:06:46.045Z,6.30
2022-10-24T00:12:08.627Z,5.93
2022-10-24T00:17:31.115Z,6.10
2022-10-24T00:22:53.828Z,6.17
2022-10-24T00:28:15.929Z,6.07
2022-10-24T00:33:38.571Z,6.70
2022-10-24T00:39:01.836Z,5.20
2022-10-24T00:44:27.226Z,6.20
2022-10-24T00:50:00.914Z,6.40
2022-10-24T00:55:23.292Z,6.23
2022-10-24T01:00:46.015Z,6.00
2022-10-24T01:06:23.354Z,6.40
2022-10-24T01:12:19.197Z,6.60
2022-10-24T01:18:06.815Z,5.87
2022-10-24T01:23:51.237Z,6.00
2022-10-24T01:29:55.363Z,6.40
2022-10-24T01:35:36.671Z,6.63
2022-10-24T01:41:13.536Z,6.63
2022-10-24T01:46:48.678Z,6.63
2022-10-24T01:52:14.995Z,6.83
2022-10-24T01:57:39.008Z,7.17
2022-10-24T02:03:27.519Z,6.40
2022-10-24T02:08:56.963Z,6.80
2022-10-24T02:14:32.459Z,7.37
2022-10-24T02:19:55.230Z,6.53
2022-10-24T02:25:24.711Z,5.93
2022-10-24T02:30:54.166Z,6.43
2022-10-24T02:36:22.288Z,5.87
2022-10-24T02:41:46.161Z,5.57
2022-10-24T02:47:13.120Z,6.27
2022-10-24T02:52:37.353Z,5.60
2022-10-24T02:57:59.695Z,5.30
2022-10-24T03:03:22.514Z,5.63
2022-10-24T03:08:44.816Z,5.00
2022-10-24T03:14:07.240Z,5.70
2022-10-24T03:19:29.380Z,5.27
2022-10-24T03:24:55.519Z,5.03
2022-10-24T03:30:18.153Z,5.87
2022-10-24T03:35:41.216Z,4.90
2022-10-24T03:41:03.472Z,4.87
2022-10-24T03:46:25.912Z,4.90
2022-10-24T03:51:48.453Z,5.27
2022-10-24T03:57:10.969Z,5.07
2022-10-24T04:03:29.171Z,4.73
2022-10-24T04:08:51.380Z,4.13
2022-10-24T04:14:14.363Z,4.67
2022-10-24T04:19:36.751Z,4.50
2022-10-24T04:24:58.903Z,4.63
2022-10-24T04:30:21.234Z,4.67
2022-10-24T04:35:48.538Z,4.40
2022-10-24T04:41:12.165Z,4.33
2022-10-24T04:46:35.072Z,4.53
2022-10-24T04:51:57.298Z,5.23
2022-10-24T04:57:19.699Z,4.83
2022-10-24T05:02:42.064Z,4.17
2022-10-24T05:08:04.636Z,4.47
2022-10-24T05:13:26.915Z,4.17
2022-10-24T05:18:49.376Z,5.00
2022-10-24T05:24:11.935Z,5.20
2022-10-24T05:29:34.487Z,4.07
2022-10-24T05:34:57.550Z,4.77
2022-10-24T05:40:20.361Z,4.27
2022-10-24T05:45:42.754Z,4.50
2022-10-24T05:51:05.094Z,4.13
2022-10-24T05:56:27.337Z,4.07
2022-10-24T06:01:49.576Z,4.57
2022-10-24T06:07:12.269Z,4.17
2022-10-24T06:12:36.497Z,4.43
2022-10-24T06:17:58.548Z,3.87
2022-10-24T06:23:21.058Z,4.20
2022-10-24T06:28:43.342Z,4.67
2022-10-24T06:34:05.486Z,4.30
2022-10-24T06:39:28.168Z,4.33
2022-10-24T06:44:51.498Z,4.47
2022-10-24T06:50:14.054Z,4.40
2022-10-24T06:55:39.484Z,4.50
2022-10-24T07:01:09.066Z,3.90
2022-10-24T07:06:31.781Z,3.97
2022-10-24T07:11:54.099Z,4.70
2022-10-24T07:17:17.570Z,4.20
2022-10-24T07:22:40.672Z,4.83
2022-10-24T07:28:03.365Z,4.70
2022-10-24T07:33:26.168Z,4.40
2022-10-24T07:38:50.239Z,4.50
2022-10-24T07:44:12.730Z,4.47
2022-10-24T07:49:35.545Z,4.50
2022-10-24T07:54:58.427Z,4.57
2022-10-24T08:00:21.372Z,4.43
2022-10-24T08:05:43.929Z,4.30
2022-10-24T08:11:15.414Z,4.87
2022-10-24T08:16:38.652Z,4.50
2022-10-24T08:22:01.846Z,4.33
2022-10-24T08:27:24.099Z,4.60
2022-10-24T08:32:46.924Z,4.60
2022-10-24T08:38:09.593Z,4.47
2022-10-24T08:43:32.477Z,4.40
2022-10-24T08:49:09.281Z,4.30
2022-10-24T08:54:37.119Z,5.47
2022-10-24T09:00:04.299Z,3.83
2022-10-24T09:05:32.311Z,3.87
2022-10-24T09:11:01.175Z,3.87
2022-10-24T09:16:24.588Z,2.93
2022-10-24T09:21:48.715Z,2.97
2022-10-24T09:27:17.338Z,3.23
2022-10-24T09:32:42.585Z,2.63
2022-10-24T09:38:23.153Z,3.20
2022-10-24T09:43:48.179Z,2.87
2022-10-24T09:49:14.248Z,3.00
2022-10-24T09:54:36.732Z,3.20
2022-10-24T10:00:00.562Z,2.85
2022-10-24T10:05:22.972Z,2.10
2022-10-24T10:10:56.871Z,2.28
2022-10-24T10:16:34.649Z,2.67
2022-10-24T10:21:57.962Z,2.35
2022-10-24T10:27:39.811Z,2.50
2022-10-24T10:33:23.570Z,2.28
2022-10-24T10:39:02.665Z,2.28
2022-10-24T10:44:40.358Z,2.40
2022-10-24T10:50:20.171Z,2.47
2022-10-24T10:55:51.774Z,2.60
2022-10-24T11:01:17.576Z,2.63
2022-10-24T11:07:05.250Z,2.53
2022-10-24T11:12:40.121Z,2.30
2022-10-24T11:18:37.091Z,2.17
2022-10-24T11:24:02.239Z,1.58
2022-10-24T11:29:42.663Z,1.73
2022-10-24T11:35:31.153Z,1.80
2022-10-24T11:41:03.277Z,2.25
2022-10-24T11:46:34.525Z,2.28
2022-10-24T11:52:12.253Z,2.10
2022-10-24T11:57:35.891Z,2.20
2022-10-24T12:03:25.186Z,2.35
2022-10-24T12:09:06.939Z,1.90
2022-10-24T12:14:31.767Z,1.90
2022-10-24T12:19:54.335Z,1.77
2022-10-24T12:25:45.688Z,1.55
2022-10-24T12:31:16.050Z,1.70
2022-10-24T12:37:16.035Z,1.80
2022-10-24T12:42:38.271Z,2.35
2022-10-24T12:48:00.693Z,2.00
2022-10-24T12:53:36.550Z,1.80
2022-10-24T12:59:01.930Z,1.90
2022-10-24T13:05:00.925Z,1.63
2022-10-24T13:10:29.258Z,2.55
2022-10-24T13:15:57.907Z,1.80
2022-10-24T13:21:28.648Z,1.73
2022-10-24T13:26:53.858Z,2.25
2022-10-24T13:32:18.788Z,2.67
2022-10-24T13:37:51.254Z,2.10
2022-10-24T13:43:22.274Z,1.90
2022-10-24T13:48:48.171Z,2.13
2022-10-24T13:54:27.077Z,2.30
2022-10-24T13:59:56.261Z,2.33
2022-10-24T14:05:26.155Z,1.73
2022-10-24T14:10:50.313Z,1.83
2022-10-24T14:16:13.953Z,2.10
2022-10-24T14:21:42.277Z,2.17
2022-10-24T14:27:04.613Z,2.08
2022-10-24T14:32:29.192Z,1.90
2022-10-24T14:37:51.648Z,2.50
2022-10-24T14:43:42.825Z,1.60
2022-10-24T14:49:20.893Z,2.00
2022-10-24T14:54:52.493Z,2.20
2022-10-24T15:00:41.348Z,2.35
2022-10-24T15:06:12.611Z,2.50
2022-10-24T15:11:43.380Z,2.13
2022-10-24T15:17:30.027Z,2.00
2022-10-24T15:22:58.590Z,2.05
2022-10-24T15:28:45.567Z,2.30
2022-10-24T15:34:10.283Z,2.50
2022-10-24T15:39:32.842Z,2.33
2022-10-24T15:44:54.964Z,2.20
2022-10-24T15:55:46.041Z,2.28
2022-10-24T16:01:21.569Z,2.33
2022-10-24T16:06:44.081Z,2.15
2022-10-24T16:12:06.889Z,2.60
2022-10-24T16:17:29.539Z,2.40
2022-10-24T16:22:52.757Z,3.00
2022-10-24T16:28:15.682Z,2.90
2022-10-24T16:33:37.988Z,2.60
2022-10-24T16:39:00.673Z,2.92
2022-10-24T16:44:23.181Z,2.50
2022-10-24T16:49:45.576Z,2.50
2022-10-24T16:55:08.644Z,1.88
2022-10-24T17:00:31.179Z,2.28
2022-10-24T17:05:53.386Z,2.13
2022-10-24T17:11:43.164Z,2.20
2022-10-24T17:16:58.247Z,2.08
2022-10-24T17:22:21.030Z,1.95
2022-10-24T17:27:43.797Z,2.15
2022-10-24T17:33:07.367Z,1.40
2022-10-24T17:39:09.167Z,1.63
2022-10-24T17:44:32.629Z,1.95
2022-10-24T17:49:55.198Z,2.00
2022-10-24T17:55:46.029Z,1.88
2022-10-24T18:01:08.732Z,2.47
2022-10-24T18:06:31.310Z,1.77
2022-10-24T18:11:53.473Z,2.03
2022-10-24T18:17:15.535Z,1.92
2022-10-24T18:22:38.873Z,2.00
2022-10-24T18:28:01.311Z,1.70
2022-10-24T18:33:23.825Z,1.80
2022-10-24T18:38:46.225Z,1.80
2022-10-24T18:44:23.580Z,1.80
2022-10-24T18:49:46.832Z,1.77
2022-10-24T18:55:21.757Z,1.83
2022-10-24T19:00:44.796Z,1.83
2022-10-24T19:06:17.502Z,1.60
2022-10-24T19:11:40.013Z,2.00
2022-10-24T19:17:03.556Z,2.00
2022-10-24T19:22:26.648Z,2.10
2022-10-24T19:27:49.714Z,1.90
2022-10-24T19:33:14.053Z,1.67
2022-10-24T19:38:36.360Z,1.63
2022-10-24T19:43:58.570Z,1.80
2022-10-24T19:49:21.024Z,1.90
2022-10-24T19:54:43.879Z,2.47
2022-10-24T20:00:06.890Z,1.70
2022-10-24T20:05:34.234Z,2.20
2022-10-24T20:10:56.809Z,2.43
2022-10-24T20:16:19.778Z,1.65
2022-10-24T20:21:42.425Z,1.90
2022-10-24T20:32:32.006Z,2.10
2022-10-24T20:37:54.213Z,2.23
2022-10-24T20:43:17.464Z,2.00
2022-10-24T20:48:39.900Z,2.00
2022-10-24T20:54:02.309Z,2.17
2022-10-24T20:59:24.705Z,2.07
2022-10-24T21:04:47.239Z,2.13
2022-10-24T21:10:09.687Z,2.00
2022-10-24T21:15:32.052Z,2.00
2022-10-24T21:20:54.622Z,1.97
2022-10-24T21:26:17.100Z,2.30
2022-10-24T21:31:39.696Z,1.87
2022-10-24T21:37:03.670Z,1.87
2022-10-24T21:42:26.071Z,2.30
2022-10-24T21:47:48.145Z,2.23
2022-10-24T21:53:10.583Z,2.30
2022-10-24T21:58:33.006Z,2.33
2022-10-24T22:03:56.858Z,2.40
2022-10-24T22:09:23.666Z,2.73
2022-10-24T22:14:46.043Z,2.37
2022-10-24T22:20:08.659Z,2.03
2022-10-24T22:25:30.979Z,2.10
2022-10-24T22:30:53.807Z,2.77
2022-10-24T22:36:38.127Z,2.20
2022-10-24T22:42:00.717Z,2.30
2022-10-24T22:47:44.617Z,2.40
2022-10-24T22:53:11.452Z,2.70
2022-10-24T22:58:34.075Z,2.70
2022-10-24T23:04:02.255Z,2.93
2022-10-24T23:09:24.751Z,2.97
2022-10-24T23:14:48.928Z,2.70
2022-10-24T23:20:30.282Z,3.00
2022-10-24T23:26:08.157Z,2.70
2022-10-24T23:31:30.500Z,2.60
2022-10-24T23:36:59.445Z,2.80
2022-10-24T23:42:22.511Z,2.87
2022-10-24T23:48:14.032Z,3.00
2022-10-24T23:53:48.911Z,2.60
2022-10-24T23:59:11.500Z,3.03
